createdAt,value
2019-06-10T00:02:10.910Z,98.80
2019-06-10T00:04:41.571Z,98.80
2019-06-10T00:07:11.863Z,98.90
2019-06-10T00:09:40.851Z,99.10
2019-06-10T00:12:12.365Z,99.20
2019-06-10T00:14:41.844Z,99.40
2019-06-10T00:17:11.177Z,99.50
2019-06-10T00:19:40.902Z,99.60
2019-06-10T00:22:11.488Z,99.50
2019-06-10T00:24:41.004Z,99.50
2019-06-10T00:27:21.599Z,99.40
2019-06-10T00:29:51.272Z,99.50
2019-06-10T00:32:53.464Z,99.60
2019-06-10T00:35:22.158Z,99.60
2019-06-10T00:37:51.305Z,99.70
2019-06-10T00:40:21.497Z,99.70
2019-06-10T00:42:50.770Z,99.80
2019-06-10T00:45:21.641Z,99.90
2019-06-10T00:47:52.059Z,99.90
2019-06-10T00:50:23.126Z,99.90
2019-06-10T00:52:52.084Z,99.90
2019-06-10T00:55:21.780Z,99.90
2019-06-10T00:57:52.239Z,99.90
2019-06-10T01:00:25.530Z,99.90
2019-06-10T01:02:51.854Z,99.90
2019-06-10T01:05:20.903Z,99.90
2019-06-10T01:07:50.871Z,99.90
2019-06-10T01:10:21.089Z,99.90
2019-06-10T01:12:51.360Z,99.90
2019-06-10T01:15:21.959Z,99.90
2019-06-10T01:17:52.417Z,99.90
2019-06-10T01:20:21.144Z,99.90
2019-06-10T01:22:51.633Z,99.90
2019-06-10T01:25:21.665Z,99.90
2019-06-10T01:27:51.521Z,99.90
2019-06-10T01:30:24.552Z,99.90
2019-06-10T01:32:50.989Z,99.90
2019-06-10T01:35:21.050Z,99.90
2019-06-10T01:37:53.354Z,99.90
2019-06-10T01:40:22.214Z,99.90
2019-06-10T01:42:50.991Z,99.90
2019-06-10T01:45:21.263Z,99.90
2019-06-10T01:47:51.103Z,99.90
2019-06-10T01:50:21.850Z,99.90
2019-06-10T01:53:00.677Z,99.90
2019-06-10T01:55:25.252Z,99.90
2019-06-10T01:57:53.948Z,99.90
2019-06-10T02:00:26.066Z,99.90
2019-06-10T02:02:54.821Z,99.90
2019-06-10T02:05:23.485Z,99.90
2019-06-10T02:07:53.049Z,99.90
2019-06-10T02:10:22.982Z,99.90
2019-06-10T02:12:51.861Z,99.90
2019-06-10T02:15:22.617Z,99.90
2019-06-10T02:17:51.104Z,99.90
2019-06-10T02:20:23.504Z,99.90
2019-06-10T02:22:51.546Z,99.90
2019-06-10T02:25:21.682Z,99.90
2019-06-10T02:27:52.481Z,99.90
2019-06-10T02:30:35.663Z,99.90
2019-06-10T02:32:52.447Z,99.90
2019-06-10T02:35:30.422Z,99.90
2019-06-10T02:37:54.359Z,99.90
2019-06-10T02:40:31.091Z,99.90
2019-06-10T02:42:55.321Z,99.90
2019-06-10T02:45:32.350Z,99.90
2019-06-10T02:47:58.988Z,99.90
2019-06-10T02:50:54.572Z,99.90
2019-06-10T02:53:30.168Z,99.90
2019-06-10T02:55:54.221Z,99.90
2019-06-10T02:58:30.379Z,99.90
2019-06-10T03:00:54.656Z,99.90
2019-06-10T03:03:35.829Z,99.90
2019-06-10T03:05:55.864Z,99.90
2019-06-10T03:08:43.387Z,99.90
2019-06-10T03:11:08.630Z,99.90
2019-06-10T03:13:38.381Z,99.90
2019-06-10T03:16:08.890Z,99.90
2019-06-10T03:18:39.413Z,99.90
2019-06-10T03:21:08.692Z,99.90
2019-06-10T03:23:42.661Z,99.90
2019-06-10T03:26:17.199Z,99.90
2019-06-10T03:28:46.052Z,99.90
2019-06-10T03:31:16.321Z,99.90
2019-06-10T03:33:47.850Z,99.90
2019-06-10T03:36:16.415Z,99.90
2019-06-10T03:38:47.124Z,99.90
2019-06-10T03:41:16.527Z,99.90
2019-06-10T03:43:45.647Z,99.90
2019-06-10T03:46:14.525Z,99.90
2019-06-10T03:48:43.517Z,99.90
2019-06-10T03:51:12.856Z,99.90
2019-06-10T03:53:42.587Z,99.90
2019-06-10T03:56:12.781Z,99.90
2019-06-10T03:58:43.046Z,99.90
2019-06-10T04:01:12.387Z,99.90
2019-06-10T04:03:42.651Z,99.90
2019-06-10T04:06:17.970Z,99.90
2019-06-10T04:08:46.780Z,99.90
2019-06-10T04:11:15.444Z,99.90
2019-06-10T04:13:47.029Z,99.90
2019-06-10T04:16:15.696Z,99.90
2019-06-10T04:18:44.645Z,99.90
2019-06-10T04:21:13.266Z,99.90
2019-06-10T04:23:42.604Z,99.90
2019-06-10T04:26:12.776Z,99.90
2019-06-10T04:28:43.056Z,99.90
2019-06-10T04:31:13.105Z,99.90
2019-06-10T04:33:42.621Z,99.90
2019-06-10T04:36:13.635Z,99.90
2019-06-10T04:38:43.171Z,99.90
2019-06-10T04:41:12.608Z,99.90
2019-06-10T04:43:43.149Z,99.90
2019-06-10T04:46:12.684Z,99.90
2019-06-10T04:48:42.618Z,99.90
2019-06-10T04:51:13.038Z,99.90
2019-06-10T04:53:43.509Z,99.90
2019-06-10T04:56:12.618Z,99.90
2019-06-10T04:58:43.265Z,99.90
2019-06-10T05:01:12.486Z,99.90
2019-06-10T05:03:43.371Z,99.90
2019-06-10T05:06:21.722Z,99.90
2019-06-10T05:08:49.442Z,99.90
2019-06-10T05:11:19.072Z,99.90
2019-06-10T05:13:47.694Z,99.90
2019-06-10T05:16:16.373Z,99.90
2019-06-10T05:18:46.796Z,99.90
2019-06-10T05:21:15.593Z,99.90
2019-06-10T05:23:44.239Z,99.90
2019-06-10T05:26:13.417Z,99.90
2019-06-10T05:28:43.323Z,99.90
2019-06-10T05:31:12.945Z,99.90
2019-06-10T05:33:42.651Z,99.90
2019-06-10T05:36:13.710Z,99.90
2019-06-10T05:38:43.389Z,99.90
2019-06-10T05:41:13.296Z,99.90
2019-06-10T05:43:43.088Z,99.90
2019-06-10T05:46:13.475Z,99.90
2019-06-10T05:48:45.094Z,99.90
2019-06-10T05:51:14.052Z,99.90
2019-06-10T05:53:45.739Z,99.90
2019-06-10T05:56:13.536Z,99.90
2019-06-10T05:58:43.591Z,99.90
2019-06-10T06:01:13.387Z,99.90
2019-06-10T06:03:46.842Z,99.90
2019-06-10T06:06:13.126Z,99.90
2019-06-10T06:08:42.903Z,99.90
2019-06-10T06:11:19.203Z,99.90
2019-06-10T06:13:53.879Z,99.90
2019-06-10T06:16:20.151Z,99.90
2019-06-10T06:18:53.381Z,99.90
2019-06-10T06:21:31.335Z,99.90
2019-06-10T06:23:56.054Z,99.90
2019-06-10T06:26:26.401Z,99.90
2019-06-10T06:28:55.183Z,99.90
2019-06-10T06:31:23.804Z,99.90
2019-06-10T06:33:55.879Z,99.90
2019-06-10T06:36:24.549Z,99.90
2019-06-10T06:38:53.359Z,99.90
2019-06-10T06:41:22.631Z,99.90
2019-06-10T06:43:53.062Z,99.90
2019-06-10T06:46:23.323Z,99.90
2019-06-10T06:48:53.203Z,99.90
2019-06-10T06:51:35.866Z,99.90
2019-06-10T06:53:56.385Z,99.90
2019-06-10T06:56:23.283Z,99.90
2019-06-10T06:58:52.577Z,99.80
2019-06-10T07:01:25.937Z,99.90
2019-06-10T07:03:54.908Z,99.60
2019-06-10T07:06:34.539Z,99.70
2019-06-10T07:09:08.181Z,99.90
2019-06-10T07:11:40.343Z,99.90
2019-06-10T07:14:10.336Z,99.90
2019-06-10T07:16:41.607Z,99.90
2019-06-10T07:19:09.941Z,99.90
2019-06-10T07:21:58.204Z,99.90
2019-06-10T07:24:34.230Z,99.90
2019-06-10T07:26:58.702Z,99.90
2019-06-10T07:29:27.326Z,99.90
2019-06-10T07:31:55.962Z,99.90
2019-06-10T07:34:24.638Z,99.90
2019-06-10T07:36:53.450Z,99.90
2019-06-10T07:39:22.700Z,99.90
2019-06-10T07:41:52.922Z,99.90
2019-06-10T07:44:22.662Z,99.90
2019-06-10T07:46:53.006Z,99.90
2019-06-10T07:49:23.879Z,99.90
2019-06-10T07:51:52.734Z,99.90
2019-06-10T07:54:23.054Z,99.90
2019-06-10T07:56:53.687Z,99.90
2019-06-10T07:59:23.338Z,99.90
2019-06-10T08:01:54.999Z,99.90
2019-06-10T08:04:22.709Z,99.90
2019-06-10T08:06:52.954Z,99.90
2019-06-10T08:09:22.776Z,99.80
2019-06-10T08:11:53.194Z,99.70
2019-06-10T08:14:22.317Z,99.40
2019-06-10T08:16:53.164Z,99.20
2019-06-10T08:19:31.554Z,99.10
2019-06-10T08:21:53.666Z,99.40
2019-06-10T08:24:22.391Z,98.80
2019-06-10T08:26:53.099Z,98.40
2019-06-10T08:29:23.428Z,97.90
2019-06-10T08:31:54.953Z,97.80
2019-06-10T08:34:23.620Z,97.90
2019-06-10T08:36:54.489Z,97.90
2019-06-10T08:39:29.822Z,97.80
2019-06-10T08:41:58.312Z,97.60
2019-06-10T08:44:26.894Z,97.80
2019-06-10T08:46:55.565Z,97.20
2019-06-10T08:49:24.108Z,97.50
2019-06-10T08:51:53.301Z,97.60
2019-06-10T08:54:23.413Z,98.00
2019-06-10T08:56:54.049Z,98.50
2019-06-10T08:59:23.223Z,98.40
2019-06-10T09:01:56.727Z,98.10
2019-06-10T09:04:22.845Z,98.20
2019-06-10T09:06:53.740Z,98.60
2019-06-10T09:09:22.572Z,99.00
2019-06-10T09:11:54.458Z,98.70
2019-06-10T09:14:23.491Z,99.30
2019-06-10T09:16:54.187Z,99.90
2019-06-10T09:19:22.774Z,99.90
2019-06-10T09:21:55.350Z,99.90
2019-06-10T09:24:22.240Z,99.90
2019-06-10T09:26:52.462Z,99.90
2019-06-10T09:29:22.282Z,99.90
2019-06-10T09:31:53.239Z,99.90
2019-06-10T09:34:23.804Z,99.90
2019-06-10T09:36:56.605Z,99.90
2019-06-10T09:39:27.175Z,99.90
2019-06-10T09:42:02.171Z,99.90
2019-06-10T09:44:26.114Z,99.90
2019-06-10T09:46:59.981Z,99.90
2019-06-10T09:49:27.953Z,99.90
2019-06-10T09:51:57.733Z,99.90
2019-06-10T09:54:26.752Z,99.90
2019-06-10T09:56:55.414Z,99.90
2019-06-10T09:59:24.055Z,99.90
2019-06-10T10:01:58.753Z,99.90
2019-06-10T10:04:23.680Z,99.90
2019-06-10T10:06:57.139Z,99.90
2019-06-10T10:09:25.968Z,99.90
2019-06-10T10:12:04.814Z,99.90
2019-06-10T10:14:28.016Z,99.90
2019-06-10T10:17:00.295Z,99.90
2019-06-10T10:19:27.228Z,99.90
2019-06-10T10:21:58.489Z,99.90
2019-06-10T10:24:26.341Z,99.90
2019-06-10T10:26:57.936Z,99.90
2019-06-10T10:29:25.118Z,99.90
2019-06-10T10:31:54.088Z,99.90
2019-06-10T10:34:23.862Z,99.90
2019-06-10T10:36:57.018Z,99.90
2019-06-10T10:39:24.626Z,99.90
2019-06-10T10:41:56.821Z,99.90
2019-06-10T10:44:23.428Z,99.90
2019-06-10T10:46:53.768Z,99.90
2019-06-10T10:49:22.403Z,99.90
2019-06-10T10:51:51.189Z,99.90
2019-06-10T10:54:29.848Z,99.90
2019-06-10T10:56:55.180Z,99.90
2019-06-10T10:59:22.055Z,99.90
2019-06-10T11:01:51.595Z,99.90
2019-06-10T11:04:23.130Z,99.90
2019-06-10T11:06:54.419Z,99.90
2019-06-10T11:09:24.517Z,99.90
2019-06-10T11:11:57.366Z,99.10
2019-06-10T11:14:26.788Z,99.00
2019-06-10T11:16:57.484Z,99.90
2019-06-10T11:19:25.836Z,98.90
2019-06-10T11:21:54.338Z,98.80
2019-06-10T11:24:33.541Z,99.90
2019-06-10T11:26:56.302Z,98.90
2019-06-10T11:29:23.394Z,98.80
2019-06-10T11:31:55.046Z,98.50
2019-06-10T11:34:22.593Z,97.80
2019-06-10T11:36:55.094Z,98.30
2019-06-10T11:39:22.535Z,98.40
2019-06-10T11:41:53.250Z,99.10
2019-06-10T11:44:22.507Z,98.70
2019-06-10T11:46:53.984Z,99.20
2019-06-10T11:49:23.763Z,98.80
2019-06-10T11:51:53.572Z,99.20
2019-06-10T11:54:24.002Z,98.90
2019-06-10T11:56:54.649Z,99.90
2019-06-10T11:59:22.682Z,99.80
2019-06-10T12:01:55.390Z,99.90
2019-06-10T12:04:23.783Z,99.80
2019-06-10T12:06:52.724Z,99.90
2019-06-10T12:09:23.007Z,99.90
2019-06-10T12:11:54.694Z,99.90
2019-06-10T12:14:26.800Z,99.90
2019-06-10T12:19:23.517Z,99.90
2019-06-10T12:21:55.632Z,99.90
2019-06-10T12:24:23.131Z,99.90
2019-06-10T12:26:57.971Z,99.90
2019-06-10T12:29:24.028Z,99.90
2019-06-10T12:31:56.119Z,99.90
2019-06-10T12:34:22.903Z,99.90
2019-06-10T12:36:56.301Z,99.90
2019-06-10T12:39:22.909Z,99.40
2019-06-10T12:41:54.844Z,99.60
2019-06-10T12:44:23.839Z,98.80
2019-06-10T12:46:54.906Z,97.70
2019-06-10T12:49:32.054Z,97.10
2019-06-10T12:52:02.597Z,97.20
2019-06-10T12:54:32.633Z,97.40
2019-06-10T12:57:04.694Z,95.80
2019-06-10T12:59:32.433Z,94.60
2019-06-10T13:02:11.337Z,95.00
2019-06-10T13:04:32.876Z,94.10
2019-06-10T13:07:05.191Z,94.30
2019-06-10T13:09:32.735Z,94.10
2019-06-10T13:12:02.038Z,93.90
2019-06-10T13:14:32.636Z,94.60
2019-06-10T13:17:03.011Z,95.40
2019-06-10T13:19:34.349Z,96.40
2019-06-10T13:22:04.546Z,96.20
2019-06-10T13:24:33.760Z,95.70
2019-06-10T13:27:04.774Z,97.40
2019-06-10T13:29:33.250Z,97.50
2019-06-10T13:32:04.175Z,96.70
2019-06-10T13:34:33.472Z,96.70
2019-06-10T13:37:03.890Z,97.00
2019-06-10T13:39:32.656Z,96.90
2019-06-10T13:47:33.173Z,97.10
2019-06-10T13:53:47.098Z,97.20
2019-06-10T13:59:17.898Z,97.30
2019-06-10T14:01:53.545Z,97.70
2019-06-10T14:04:25.715Z,97.30
2019-06-10T14:07:14.513Z,96.90
2019-06-10T14:16:55.508Z,95.00
2019-06-10T14:21:17.990Z,94.80
2019-06-10T14:22:32.854Z,94.60
2019-06-10T14:25:29.458Z,94.50
2019-06-10T14:28:04.331Z,94.70
2019-06-10T14:30:37.828Z,94.90
2019-06-10T14:33:07.435Z,94.80
2019-06-10T14:35:36.131Z,94.40
2019-06-10T14:38:24.103Z,94.40
2019-06-10T14:41:14.764Z,94.90
2019-06-10T14:44:04.598Z,95.20
2019-06-10T14:46:36.866Z,95.50
2019-06-10T14:49:08.847Z,94.70
2019-06-10T14:51:54.264Z,94.90
2019-06-10T14:57:42.688Z,95.60
2019-06-10T15:00:15.661Z,95.40
2019-06-10T15:02:44.542Z,95.00
2019-06-10T15:05:17.519Z,94.60
2019-06-10T15:07:47.794Z,95.20
2019-06-10T15:10:17.867Z,95.40
2019-06-10T15:16:17.609Z,95.70
2019-06-10T15:22:43.167Z,95.40
2019-06-10T15:38:59.461Z,94.60
2019-06-10T15:41:47.735Z,95.30
2019-06-10T15:45:02.299Z,95.80
2019-06-10T15:47:05.510Z,96.10
2019-06-10T15:52:52.420Z,95.90
2019-06-10T15:56:08.938Z,96.30
2019-06-10T15:58:12.916Z,96.20
2019-06-10T16:00:42.604Z,96.60
2019-06-10T16:22:30.027Z,96.50
2019-06-10T16:25:12.742Z,96.90
2019-06-10T16:27:58.274Z,96.80
2019-06-10T16:30:29.284Z,97.10
2019-06-10T16:32:57.990Z,97.50
2019-06-10T16:35:28.997Z,97.60
2019-06-10T16:38:01.535Z,97.70
2019-06-10T16:40:35.067Z,97.90
2019-06-10T16:43:09.427Z,98.30
2019-06-10T16:45:38.187Z,99.00
2019-06-10T16:48:09.793Z,98.80
2019-06-10T16:50:38.684Z,98.90
2019-06-10T16:53:36.990Z,99.00
2019-06-10T16:56:08.896Z,98.60
2019-06-10T16:58:39.175Z,98.10
2019-06-10T17:04:01.510Z,99.00
2019-06-10T17:06:27.917Z,99.40
2019-06-10T17:08:56.683Z,99.40
2019-06-10T17:11:27.514Z,99.20
2019-06-10T17:13:56.213Z,99.30
2019-06-10T17:16:26.407Z,99.30
2019-06-10T17:18:57.086Z,99.00
2019-06-10T17:21:29.737Z,98.70
2019-06-10T17:23:56.476Z,98.60
2019-06-10T17:26:30.575Z,98.70
2019-06-10T17:28:55.725Z,99.00
2019-06-10T17:31:28.494Z,99.30
2019-06-10T17:33:57.846Z,99.30
2019-06-10T17:36:29.509Z,99.40
2019-06-10T17:38:57.225Z,99.40
2019-06-10T17:41:29.015Z,99.10
2019-06-10T17:43:56.566Z,99.10
2019-06-10T17:46:27.862Z,98.80
2019-06-10T17:48:56.210Z,98.70
2019-06-10T17:51:27.486Z,99.40
2019-06-10T17:53:55.601Z,99.40
2019-06-10T17:56:26.261Z,99.00
2019-06-10T17:58:57.936Z,99.10
2019-06-10T18:01:25.530Z,99.40
2019-06-10T18:03:54.529Z,99.50
2019-06-10T18:06:25.441Z,99.50
2019-06-10T18:08:53.949Z,99.90
2019-06-10T18:11:24.309Z,99.90
2019-06-10T18:13:52.841Z,99.90
2019-06-10T18:16:22.803Z,99.90
2019-06-10T18:18:52.493Z,99.90
2019-06-10T18:21:22.340Z,99.90
2019-06-10T18:23:52.897Z,99.90
2019-06-10T18:26:23.078Z,99.90
2019-06-10T18:29:01.807Z,99.90
2019-06-10T18:31:23.395Z,99.90
2019-06-10T18:33:53.074Z,99.90
2019-06-10T18:36:24.320Z,99.90
2019-06-10T18:38:52.727Z,99.90
2019-06-10T18:41:22.370Z,99.90
2019-06-10T18:43:51.324Z,99.90
2019-06-10T18:46:19.939Z,99.90
2019-06-10T18:48:48.667Z,99.90
2019-06-10T18:51:17.342Z,99.90
2019-06-10T18:53:46.088Z,99.80
2019-06-10T18:56:15.936Z,99.30
2019-06-10T18:58:44.520Z,99.40
2019-06-10T19:01:14.604Z,99.40
2019-06-10T19:03:43.582Z,99.80
2019-06-10T19:06:12.670Z,99.60
2019-06-10T19:08:44.329Z,99.50
2019-06-10T19:11:11.897Z,99.90
2019-06-10T19:13:43.319Z,99.90
2019-06-10T19:16:13.016Z,99.90
2019-06-10T19:18:43.185Z,99.90
2019-06-10T19:21:12.825Z,99.90
2019-06-10T19:23:43.917Z,99.90
2019-06-10T19:26:13.449Z,99.90
2019-06-10T19:28:45.149Z,99.90
2019-06-10T19:31:13.234Z,99.90
2019-06-10T19:33:45.181Z,99.90
2019-06-10T19:36:16.377Z,99.90
2019-06-10T19:38:44.992Z,99.90
2019-06-10T19:41:13.750Z,99.90
2019-06-10T19:43:45.284Z,99.90
2019-06-10T19:46:13.068Z,99.90
2019-06-10T19:48:51.043Z,99.90
2019-06-10T19:51:12.252Z,99.90
2019-06-10T19:53:43.802Z,99.90
2019-06-10T19:56:13.012Z,99.90
2019-06-10T19:58:43.402Z,99.90
2019-06-10T20:01:12.049Z,99.90
2019-06-10T20:03:44.652Z,99.90
2019-06-10T20:06:13.029Z,99.90
2019-06-10T20:08:44.212Z,99.90
2019-06-10T20:11:12.409Z,99.90
2019-06-10T20:13:43.646Z,99.90
2019-06-10T20:16:12.050Z,99.90
2019-06-10T20:18:45.195Z,99.90
2019-06-10T20:21:12.884Z,99.90
2019-06-10T20:23:44.563Z,99.90
2019-06-10T20:26:12.190Z,99.90
2019-06-10T20:28:43.333Z,99.90
2019-06-10T20:31:12.748Z,99.90
2019-06-10T20:33:43.058Z,99.90
2019-06-10T20:36:21.626Z,99.90
2019-06-10T20:38:46.407Z,99.90
2019-06-10T20:41:14.082Z,99.90
2019-06-10T20:43:44.284Z,99.90
2019-06-10T20:46:13.406Z,99.90
2019-06-10T20:48:45.446Z,99.90
2019-06-10T20:51:14.261Z,99.90
2019-06-10T20:53:44.376Z,99.90
2019-06-10T20:56:13.422Z,99.90
2019-06-10T20:58:43.765Z,99.90
2019-06-10T21:01:12.627Z,99.90
2019-06-10T21:03:43.802Z,99.90
2019-06-10T21:06:13.763Z,99.90
2019-06-10T21:08:46.816Z,99.90
2019-06-10T21:11:13.928Z,99.90
2019-06-10T21:13:46.020Z,99.90
2019-06-10T21:16:13.054Z,99.90
2019-06-10T21:18:45.335Z,99.90
2019-06-10T21:21:12.193Z,99.90
2019-06-10T21:24:02.086Z,99.90
2019-06-10T21:26:43.321Z,99.90
2019-06-10T21:29:09.405Z,99.90
2019-06-10T21:31:38.411Z,99.90
2019-06-10T21:34:07.323Z,99.90
2019-06-10T21:36:36.176Z,99.90
2019-06-10T21:39:07.505Z,99.90
2019-06-10T21:41:36.335Z,99.90
2019-06-10T21:44:06.786Z,99.90
2019-06-10T21:46:35.613Z,99.90
2019-06-10T21:49:07.335Z,99.90
2019-06-10T21:51:35.126Z,99.90
2019-06-10T21:54:04.030Z,99.90
2019-06-10T21:56:32.941Z,99.90
2019-06-10T21:59:02.484Z,99.90
2019-06-10T22:01:32.603Z,99.90
2019-06-10T22:04:04.408Z,99.90
2019-06-10T22:06:33.166Z,99.90
2019-06-10T22:09:04.047Z,99.90
2019-06-10T22:11:32.585Z,99.90
2019-06-10T22:14:02.833Z,99.90
2019-06-10T22:16:32.957Z,99.90
2019-06-10T22:19:03.250Z,99.90
2019-06-10T22:21:32.692Z,99.90
2019-06-10T22:24:02.230Z,99.90
2019-06-10T22:26:32.279Z,99.90
2019-06-10T22:29:01.057Z,99.90
2019-06-10T22:31:32.461Z,99.90
2019-06-10T22:34:00.217Z,99.90
2019-06-10T22:36:28.901Z,99.90
2019-06-10T22:38:59.244Z,99.90
2019-06-10T22:41:28.219Z,99.90
2019-06-10T22:43:57.570Z,99.90
2019-06-10T22:46:26.445Z,99.90
2019-06-10T22:48:55.392Z,99.90
2019-06-10T22:51:26.191Z,99.90
2019-06-10T22:53:57.019Z,99.90
2019-06-10T22:56:25.401Z,99.90
2019-06-10T22:58:55.643Z,99.90
2019-06-10T23:01:34.424Z,99.90
2019-06-10T23:03:56.244Z,99.90
2019-06-10T23:06:25.287Z,99.90
2019-06-10T23:08:56.198Z,99.90
2019-06-10T23:11:24.629Z,99.90
2019-06-10T23:13:54.840Z,99.90
2019-06-10T23:16:23.667Z,99.90
2019-06-10T23:18:55.005Z,99.90
2019-06-10T23:21:22.862Z,99.90
2019-06-10T23:23:53.829Z,99.90
2019-06-10T23:26:22.602Z,99.90
2019-06-10T23:28:54.056Z,99.90
2019-06-10T23:33:56.858Z,99.90
2019-06-10T23:36:25.632Z,99.90
2019-06-10T23:38:54.837Z,99.90
2019-06-10T23:41:23.558Z,99.90
2019-06-10T23:43:53.034Z,99.90
2019-06-10T23:46:22.755Z,99.90
2019-06-10T23:48:51.664Z,99.90
2019-06-10T23:51:22.631Z,99.90
2019-06-10T23:53:55.349Z,99.90
2019-06-10T23:56:22.131Z,99.90
2019-06-10T23:58:53.743Z,99.90
